Time;durP1;ratioP1;P1;durP2;ratioP2;P2;SDS_P1;SDS_P2;PMS_P1;PMS_P2;Temp;Humidity;BMP_temperature;BMP_pressure;BME280_temperature;BME280_humidity;BME280_pressure;Samples;Min_cycle;Max_cycle;Signal;HPM_P1;HPM_P2
2023/04/09 00:02:21;;;;;;;;;;;;;;;22.12;34.79;101411.11;103678;1287;61849;-83
2023/04/09 00:04:48;;;;;;;;;;;;;;;22.12;34.64;101411.33;103715;1285;61451;-83
2023/04/09 00:07:13;;;;;;;;;;;;;;;22.12;34.71;101409.13;103699;1286;62406;-84
2023/04/09 00:09:39;;;;;;;;;;;;;;;22.13;34.69;101411.46;103749;1290;61583;-84
2023/04/09 00:12:06;;;;;;;;;;;;;;;22.13;34.62;101414.86;103599;1285;62049;-83
2023/04/09 00:14:32;;;;;;;;;;;;;;;22.12;34.69;101412.40;103715;1285;61410;-83
2023/04/09 00:16:57;;;;;;;;;;;;;;;22.12;34.76;101417.74;103699;1291;62180;-84
2023/04/09 00:19:23;;;;;;;;;;;;;;;22.12;34.68;101415.77;103712;1285;61443;-83
2023/04/09 00:21:48;;;;;;;;;;;;;;;22.12;34.54;101419.22;103648;1285;61436;-83
2023/04/09 00:24:14;;;;;;;;;;;;;;;22.12;34.72;101422.23;103718;1286;61570;-84
2023/04/09 00:26:40;;;;;;;;;;;;;;;22.12;34.70;101420.81;103820;1285;61333;-82
2023/04/09 00:29:06;;;;;;;;;;;;;;;22.12;34.58;101417.61;103873;1288;61493;-83
2023/04/09 00:31:32;;;;;;;;;;;;;;;22.12;34.70;101421.86;104011;1282;61362;-83
2023/04/09 00:33:57;;;;;;;;;;;;;;;22.12;34.65;101424.04;103953;1288;61292;-83
2023/04/09 00:36:23;;;;;;;;;;;;;;;22.12;34.68;101428.17;103941;1282;61699;-84
2023/04/09 00:38:52;;;;;;;;;;;;;;;22.11;34.61;101423.88;104052;1283;61401;-84
2023/04/09 00:41:18;;;;;;;;;;;;;;;22.12;34.80;101424.41;103912;1282;62555;-83
2023/04/09 00:43:44;;;;;;;;;;;;;;;22.12;34.67;101424.22;103951;1286;61390;-83
2023/04/09 00:46:09;;;;;;;;;;;;;;;22.12;34.61;101423.84;103968;1285;61379;-83
2023/04/09 00:48:35;;;;;;;;;;;;;;;22.12;34.62;101422.80;103943;1282;61349;-83
2023/04/09 00:51:00;;;;;;;;;;;;;;;22.12;34.64;101423.86;103980;1282;61403;-84
2023/04/09 00:53:26;;;;;;;;;;;;;;;22.12;34.58;101426.39;104011;1282;61457;-83
2023/04/09 00:55:52;;;;;;;;;;;;;;;22.12;34.58;101425.33;103933;1288;61378;-84
2023/04/09 00:58:17;;;;;;;;;;;;;;;22.12;34.51;101423.89;104063;1282;61652;-83
2023/04/09 01:00:43;;;;;;;;;;;;;;;22.11;34.70;101429.29;103959;1282;62416;-83
2023/04/09 01:03:08;;;;;;;;;;;;;;;22.12;34.60;101429.64;103966;1283;62627;-83
2023/04/09 01:06:14;;;;;;;;;;;;;;;22.12;34.68;101431.41;103928;1283;61379;-83
2023/04/09 01:08:58;;;;;;;;;;;;;;;22.12;34.68;101431.42;103429;1289;73286;-83
2023/04/09 01:11:43;;;;;;;;;;;;;;;22.11;34.61;101431.23;103366;1289;75400;-83
2023/04/09 01:14:13;;;;;;;;;;;;;;;22.11;34.55;101425.52;103881;1283;61308;-83
2023/04/09 01:16:40;;;;;;;;;;;;;;;22.11;34.59;101425.00;104060;1283;62069;-83
2023/04/09 01:19:09;;;;;;;;;;;;;;;22.10;34.62;101420.17;104063;1282;72530;-82
2023/04/09 01:21:35;;;;;;;;;;;;;;;22.12;34.62;101424.25;103934;1283;74309;-83
2023/04/09 01:24:13;;;;;;;;;;;;;;;22.12;34.59;101424.25;103903;1282;61407;-84
2023/04/09 01:26:38;;;;;;;;;;;;;;;22.11;34.47;101426.42;103967;1282;61900;-83
2023/04/09 01:29:04;;;;;;;;;;;;;;;22.11;34.65;101428.77;103934;1282;61478;-83
2023/04/09 01:31:41;;;;;;;;;;;;;;;22.10;34.60;101429.69;104023;1287;62604;-84
2023/04/09 01:34:07;;;;;;;;;;;;;;;22.11;34.53;101428.77;104372;1283;61432;-84
2023/04/09 01:36:33;;;;;;;;;;;;;;;22.11;34.60;101431.45;104018;1283;61349;-83
2023/04/09 01:39:02;;;;;;;;;;;;;;;22.10;34.55;101428.06;103986;1288;61286;-83
2023/04/09 01:41:27;;;;;;;;;;;;;;;22.11;34.62;101428.77;103912;1283;75538;-83
2023/04/09 01:43:53;;;;;;;;;;;;;;;22.11;34.57;101426.59;103981;1282;61417;-83
2023/04/09 01:46:18;;;;;;;;;;;;;;;22.11;34.55;101424.45;103980;1283;61404;-83
2023/04/09 01:48:45;;;;;;;;;;;;;;;22.11;34.51;101417.08;103919;1282;61343;-84
2023/04/09 01:51:13;;;;;;;;;;;;;;;22.10;34.67;101417.66;104028;1283;61390;-83
2023/04/09 01:53:39;;;;;;;;;;;;;;;22.12;34.64;101415.82;104033;1282;61192;-83
2023/04/09 01:56:05;;;;;;;;;;;;;;;22.11;34.65;101413.16;104072;1282;61465;-84
2023/04/09 01:58:33;;;;;;;;;;;;;;;22.11;34.60;101417.84;103937;1288;61330;-83
2023/04/09 02:01:10;;;;;;;;;;;;;;;22.11;34.60;101414.61;103907;1283;62426;-83
2023/04/09 02:03:46;;;;;;;;;;;;;;;22.11;34.62;101413.88;103993;1283;61416;-83
2023/04/09 02:06:16;;;;;;;;;;;;;;;22.12;34.53;101418.16;103977;1282;61423;-84
2023/04/09 02:08:43;;;;;;;;;;;;;;;22.12;34.68;101421.36;104059;1283;72293;-84
2023/04/09 02:11:09;;;;;;;;;;;;;;;22.12;34.55;101421.55;103965;1286;61334;-83
2023/04/09 02:13:34;;;;;;;;;;;;;;;22.12;34.69;101419.04;104081;1282;61983;-83
2023/04/09 02:16:00;;;;;;;;;;;;;;;22.11;34.62;101417.27;103942;1282;61809;-83
2023/04/09 02:18:27;;;;;;;;;;;;;;;22.11;34.67;101417.83;103975;1283;61327;-83
2023/04/09 02:20:53;;;;;;;;;;;;;;;22.11;34.69;101416.39;103993;1288;61385;-84
2023/04/09 02:23:19;;;;;;;;;;;;;;;22.11;34.60;101417.13;103963;1283;62640;-84
2023/04/09 02:25:44;;;;;;;;;;;;;;;22.10;34.64;101416.61;104017;1285;61422;-84
2023/04/09 02:28:09;;;;;;;;;;;;;;;22.10;34.58;101414.26;104042;1283;61414;-84
2023/04/09 02:30:35;;;;;;;;;;;;;;;22.10;34.48;101414.46;103958;1287;61451;-84
2023/04/09 02:33:03;;;;;;;;;;;;;;;22.10;34.56;101412.17;103980;1283;61883;-84
2023/04/09 02:35:29;;;;;;;;;;;;;;;22.09;34.52;101413.42;103959;1283;61281;-83
2023/04/09 02:37:54;;;;;;;;;;;;;;;22.09;34.53;101411.83;104037;1282;62558;-84
2023/04/09 02:40:20;;;;;;;;;;;;;;;22.10;34.50;101415.36;103952;1282;61304;-84
2023/04/09 02:42:45;;;;;;;;;;;;;;;22.10;34.63;101413.05;104003;1286;62446;-83
2023/04/09 02:45:11;;;;;;;;;;;;;;;22.10;34.46;101414.66;103917;1288;61467;-82
2023/04/09 02:47:36;;;;;;;;;;;;;;;22.10;34.63;101417.17;103974;1283;62438;-84
2023/04/09 02:50:02;;;;;;;;;;;;;;;22.09;34.55;101415.77;103997;1287;61388;-84
2023/04/09 02:52:27;;;;;;;;;;;;;;;22.10;34.57;101414.47;103940;1288;61388;-83
2023/04/09 02:54:53;;;;;;;;;;;;;;;22.09;34.63;101412.90;103952;1288;61463;-84
2023/04/09 02:57:18;;;;;;;;;;;;;;;22.09;34.59;101408.23;103971;1282;61285;-84
2023/04/09 02:59:44;;;;;;;;;;;;;;;22.09;34.61;101408.80;103949;1283;62504;-83
2023/04/09 03:02:10;;;;;;;;;;;;;;;22.09;34.49;101411.31;103884;1283;61404;-82
2023/04/09 03:04:36;;;;;;;;;;;;;;;22.09;34.63;101410.98;103981;1285;62658;-83
2023/04/09 03:07:01;;;;;;;;;;;;;;;22.09;34.58;101410.95;103993;1282;61330;-83
2023/04/09 03:09:28;;;;;;;;;;;;;;;22.09;34.59;101411.34;103936;1283;61455;-84
2023/04/09 03:11:55;;;;;;;;;;;;;;;22.09;34.62;101410.77;103904;1282;61371;-83
2023/04/09 03:14:20;;;;;;;;;;;;;;;22.09;34.67;101414.91;104013;1286;61384;-83
2023/04/09 03:16:46;;;;;;;;;;;;;;;22.08;34.54;101410.27;103995;1288;61391;-83
2023/04/09 03:19:11;;;;;;;;;;;;;;;22.08;34.51;101412.63;104086;1283;62402;-83
2023/04/09 03:21:37;;;;;;;;;;;;;;;22.09;34.46;101416.51;104040;1282;61333;-83
2023/04/09 03:24:02;;;;;;;;;;;;;;;22.09;34.62;101418.66;104031;1282;61397;-83
2023/04/09 03:26:28;;;;;;;;;;;;;;;22.09;34.46;101422.43;103982;1282;61384;-83
2023/04/09 03:28:54;;;;;;;;;;;;;;;22.09;34.46;101421.75;104024;1283;61467;-83
2023/04/09 03:31:19;;;;;;;;;;;;;;;22.09;34.51;101426.21;104022;1288;61368;-83
2023/04/09 03:33:45;;;;;;;;;;;;;;;22.09;34.52;101425.31;104002;1283;62396;-83
2023/04/09 03:36:10;;;;;;;;;;;;;;;22.08;34.54;101421.41;103989;1283;61365;-83
2023/04/09 03:38:36;;;;;;;;;;;;;;;22.08;34.52;101423.90;104067;1283;61453;-84
2023/04/09 03:41:02;;;;;;;;;;;;;;;22.07;34.45;101422.15;103947;1288;61388;-83
2023/04/09 03:43:27;;;;;;;;;;;;;;;22.08;34.44;101422.84;104017;1282;61395;-84
2023/04/09 03:45:53;;;;;;;;;;;;;;;22.08;34.54;101421.05;103943;1286;62521;-84
2023/04/09 03:48:18;;;;;;;;;;;;;;;22.08;34.57;101424.79;103987;1283;61399;-83
2023/04/09 03:50:44;;;;;;;;;;;;;;;22.08;34.55;101427.14;103928;1282;61320;-84
2023/04/09 03:53:09;;;;;;;;;;;;;;;22.08;34.57;101427.31;104091;1286;61836;-83
2023/04/09 03:55:36;;;;;;;;;;;;;;;22.08;34.48;101430.17;104378;1288;61393;-84
2023/04/09 03:58:01;;;;;;;;;;;;;;;22.09;34.48;101432.64;104037;1282;61257;-84
2023/04/09 04:00:50;;;;;;;;;;;;;;;22.08;34.53;101438.23;103968;1282;62627;-84
2023/04/09 04:03:16;;;;;;;;;;;;;;;22.09;34.45;101437.31;103612;1288;72671;-82
2023/04/09 04:05:41;;;;;;;;;;;;;;;22.09;34.45;101440.20;103575;1289;61859;-83
2023/04/09 04:08:07;;;;;;;;;;;;;;;22.09;34.57;101441.45;103434;1289;61397;-83
2023/04/09 04:10:32;;;;;;;;;;;;;;;22.09;34.48;101445.20;103259;1289;61698;-84
2023/04/09 04:12:58;;;;;;;;;;;;;;;22.09;34.42;101445.92;103564;1289;61493;-84
2023/04/09 04:15:24;;;;;;;;;;;;;;;22.09;34.48;101445.19;103436;1289;73686;-82
2023/04/09 04:17:49;;;;;;;;;;;;;;;22.09;34.44;101449.10;103400;1294;61337;-83
2023/04/09 04:20:14;;;;;;;;;;;;;;;22.09;34.58;101452.70;103441;1289;62494;-84
2023/04/09 04:22:40;;;;;;;;;;;;;;;22.10;34.42;101447.64;103244;1290;61575;-83
2023/04/09 04:25:06;;;;;;;;;;;;;;;22.10;34.44;101447.48;103427;1289;62536;-84
2023/04/09 04:27:31;;;;;;;;;;;;;;;22.10;34.49;101448.33;103465;1289;72626;-83
2023/04/09 04:29:57;;;;;;;;;;;;;;;22.11;34.47;101445.98;103446;1289;61442;-83
2023/04/09 04:32:23;;;;;;;;;;;;;;;22.10;34.43;101452.80;103313;1289;61415;-83
2023/04/09 04:34:49;;;;;;;;;;;;;;;22.10;34.58;101449.22;103402;1288;61496;-84
2023/04/09 04:37:14;;;;;;;;;;;;;;;22.11;34.49;101455.11;103471;1289;62334;-82
2023/04/09 04:39:39;;;;;;;;;;;;;;;22.11;34.49;101455.48;103265;1289;61423;-83
2023/04/09 04:42:05;;;;;;;;;;;;;;;22.11;34.47;101459.75;103926;1282;62635;-83
2023/04/09 04:44:30;;;;;;;;;;;;;;;22.12;34.37;101460.81;103995;1283;61413;-83
2023/04/09 04:46:56;;;;;;;;;;;;;;;22.11;34.34;101459.20;103942;1283;61348;-83
2023/04/09 04:49:21;;;;;;;;;;;;;;;22.12;34.45;101459.02;104017;1285;61723;-83
2023/04/09 04:51:47;;;;;;;;;;;;;;;22.12;34.23;101463.67;104001;1282;62573;-82
2023/04/09 04:54:12;;;;;;;;;;;;;;;22.12;34.47;101461.67;103918;1288;61397;-84
2023/04/09 04:56:38;;;;;;;;;;;;;;;22.12;34.50;101464.20;104011;1282;61327;-83
2023/04/09 04:59:03;;;;;;;;;;;;;;;22.12;34.43;101461.69;103949;1288;61297;-84
2023/04/09 05:01:29;;;;;;;;;;;;;;;22.12;34.51;101466.33;103947;1282;61495;-83
2023/04/09 05:03:55;;;;;;;;;;;;;;;22.13;34.35;101466.84;104022;1283;61292;-83
2023/04/09 05:06:21;;;;;;;;;;;;;;;22.14;34.38;101467.32;104091;1283;75577;-83
2023/04/09 05:08:47;;;;;;;;;;;;;;;22.14;34.38;101472.51;103951;1286;61390;-83
2023/04/09 05:11:13;;;;;;;;;;;;;;;22.14;34.34;101474.81;104011;1282;61368;-83
2023/04/09 05:13:39;;;;;;;;;;;;;;;22.15;34.52;101477.48;103860;1288;61643;-83
2023/04/09 05:16:05;;;;;;;;;;;;;;;22.15;34.37;101476.73;103958;1282;62426;-84
2023/04/09 05:18:30;;;;;;;;;;;;;;;22.14;34.29;101478.23;103932;1282;61390;-84
2023/04/09 05:20:56;;;;;;;;;;;;;;;22.14;34.46;101483.58;104020;1286;61422;-83
2023/04/09 05:23:21;;;;;;;;;;;;;;;22.14;34.23;101481.07;104042;1283;61314;-84
2023/04/09 05:25:48;;;;;;;;;;;;;;;22.14;34.49;101479.45;103945;1288;61748;-84
2023/04/09 05:28:15;;;;;;;;;;;;;;;22.14;34.48;101479.28;103984;1288;61282;-83
2023/04/09 05:30:41;;;;;;;;;;;;;;;22.14;34.39;101476.23;103970;1288;61458;-83
2023/04/09 05:33:06;;;;;;;;;;;;;;;22.14;34.33;101478.40;104003;1282;61448;-84
2023/04/09 05:35:32;;;;;;;;;;;;;;;22.14;34.35;101482.50;103987;1282;61390;-84
2023/04/09 05:37:57;;;;;;;;;;;;;;;22.14;34.37;101480.52;103996;1283;61389;-84
2023/04/09 05:40:23;;;;;;;;;;;;;;;22.14;34.38;101482.52;103946;1287;61413;-83
2023/04/09 05:42:48;;;;;;;;;;;;;;;22.14;34.28;101482.85;103955;1283;62427;-84
2023/04/09 05:45:14;;;;;;;;;;;;;;;22.15;34.32;101484.44;104124;1285;62686;-84
2023/04/09 05:47:39;;;;;;;;;;;;;;;22.15;34.36;101483.70;104044;1283;61383;-84
2023/04/09 05:50:05;;;;;;;;;;;;;;;22.14;34.36;101486.63;103901;1283;61386;-84
2023/04/09 05:52:31;;;;;;;;;;;;;;;22.15;34.38;101490.00;103974;1282;61377;-83
2023/04/09 05:54:57;;;;;;;;;;;;;;;22.14;34.28;101483.74;104044;1283;61390;-84
2023/04/09 05:57:22;;;;;;;;;;;;;;;22.15;34.49;101487.86;103982;1282;61894;-83
2023/04/09 05:59:48;;;;;;;;;;;;;;;22.15;34.20;101486.58;103964;1288;61390;-84
2023/04/09 06:02:13;;;;;;;;;;;;;;;22.16;34.23;101488.35;103993;1283;63146;-83
2023/04/09 06:04:39;;;;;;;;;;;;;;;22.16;34.33;101487.08;104007;1282;61401;-83
2023/04/09 06:07:04;;;;;;;;;;;;;;;22.15;34.33;101487.46;104050;1283;61391;-83
2023/04/09 06:09:30;;;;;;;;;;;;;;;22.16;34.27;101487.45;104054;1282;61473;-83
2023/04/09 06:11:56;;;;;;;;;;;;;;;22.16;34.21;101486.33;103962;1288;62469;-84
2023/04/09 06:14:21;;;;;;;;;;;;;;;22.16;34.20;101485.05;103979;1288;61273;-83
2023/04/09 06:16:47;;;;;;;;;;;;;;;22.17;34.30;101487.19;104357;1282;61314;-83
2023/04/09 06:19:14;;;;;;;;;;;;;;;22.17;34.28;101489.52;103951;1283;61467;-83
2023/04/09 06:21:40;;;;;;;;;;;;;;;22.17;34.33;101491.82;103945;1283;61480;-82
2023/04/09 06:24:05;;;;;;;;;;;;;;;22.18;34.27;101496.07;103952;1283;61477;-83
2023/04/09 06:26:31;;;;;;;;;;;;;;;22.18;34.30;101498.20;103822;1285;61731;-83
2023/04/09 06:28:56;;;;;;;;;;;;;;;22.18;34.20;101494.44;103685;1286;61494;-84
2023/04/09 06:31:22;;;;;;;;;;;;;;;22.19;34.25;101499.02;103536;1285;61547;-84
2023/04/09 06:33:47;;;;;;;;;;;;;;;22.20;34.18;101496.66;103677;1291;61537;-84
2023/04/09 06:36:13;;;;;;;;;;;;;;;22.20;34.34;101502.39;103677;1286;61307;-82
2023/04/09 06:38:38;;;;;;;;;;;;;;;22.20;34.23;101501.83;103688;1290;74624;-82
2023/04/09 06:41:07;;;;;;;;;;;;;;;22.20;34.23;101507.20;103808;1285;61736;-83
2023/04/09 06:43:32;;;;;;;;;;;;;;;22.20;34.35;101501.46;103593;1285;61608;-84
2023/04/09 06:45:58;;;;;;;;;;;;;;;22.21;34.27;101500.72;103711;1285;61383;-84
2023/04/09 06:48:23;;;;;;;;;;;;;;;22.21;34.26;101499.11;103609;1291;61383;-84
2023/04/09 06:50:49;;;;;;;;;;;;;;;22.21;34.40;101498.71;103742;1288;61381;-83
2023/04/09 06:53:15;;;;;;;;;;;;;;;22.22;34.24;101503.15;103742;1285;61570;-83
2023/04/09 06:55:42;;;;;;;;;;;;;;;22.22;34.35;101501.17;103702;1289;61399;-83
2023/04/09 06:58:08;;;;;;;;;;;;;;;22.23;34.21;101501.31;104217;1282;71246;-83
2023/04/09 07:00:33;;;;;;;;;;;;;;;22.23;34.29;101501.09;104101;1282;61544;-83
2023/04/09 07:02:59;;;;;;;;;;;;;;;22.23;34.32;101498.74;104281;1283;61380;-82
2023/04/09 07:05:25;;;;;;;;;;;;;;;22.24;34.30;101497.10;103524;1283;686547;-82
2023/04/09 07:07:50;;;;;;;;;;;;;;;22.24;34.30;101495.10;103969;1288;61291;-83
2023/04/09 07:10:16;;;;;;;;;;;;;;;22.25;34.18;101497.73;103990;1283;72381;-83
2023/04/09 07:12:42;;;;;;;;;;;;;;;22.25;34.28;101496.12;103901;1283;61304;-84
2023/04/09 07:15:08;;;;;;;;;;;;;;;22.26;34.27;101494.44;103886;1288;62435;-84
2023/04/09 07:17:33;;;;;;;;;;;;;;;22.27;34.29;101496.19;103947;1288;61474;-84
2023/04/09 07:19:59;;;;;;;;;;;;;;;22.28;34.18;101495.41;103963;1282;61384;-84
2023/04/09 07:22:25;;;;;;;;;;;;;;;22.29;34.23;101493.92;104077;1285;61371;-83
2023/04/09 07:24:54;;;;;;;;;;;;;;;22.30;34.25;101493.50;104025;1283;75183;-83
2023/04/09 07:27:23;;;;;;;;;;;;;;;22.31;34.19;101491.63;104001;1285;61216;-83
2023/04/09 07:29:49;;;;;;;;;;;;;;;22.32;34.10;101494.77;104002;1283;62635;-83
2023/04/09 07:32:17;;;;;;;;;;;;;;;22.33;34.25;101494.91;104074;1288;61339;-83
2023/04/09 07:35:01;;;;;;;;;;;;;;;22.34;34.21;101495.92;103985;1288;74294;-83
2023/04/09 07:37:26;;;;;;;;;;;;;;;22.34;34.09;101498.21;103988;1284;62423;-83
2023/04/09 07:39:52;;;;;;;;;;;;;;;22.36;34.12;101492.98;103958;1283;61380;-83
2023/04/09 07:42:18;;;;;;;;;;;;;;;22.37;34.20;101496.85;103990;1288;61377;-84
2023/04/09 07:44:46;;;;;;;;;;;;;;;22.38;34.35;101498.77;103985;1289;61378;-84
2023/04/09 07:47:11;;;;;;;;;;;;;;;22.39;34.25;101500.31;104048;1282;61352;-84
2023/04/09 07:49:37;;;;;;;;;;;;;;;22.39;34.19;101501.88;103949;1283;61295;-84
2023/04/09 07:52:03;;;;;;;;;;;;;;;22.40;34.23;101501.81;103977;1283;61387;-84
2023/04/09 07:54:30;;;;;;;;;;;;;;;22.41;34.22;101501.23;104004;1282;61313;-84
2023/04/09 07:56:56;;;;;;;;;;;;;;;22.41;34.20;101497.64;104018;1283;74330;-83
2023/04/09 07:59:23;;;;;;;;;;;;;;;22.41;34.15;101496.89;104078;1287;61265;-83
2023/04/09 08:01:48;;;;;;;;;;;;;;;22.42;34.25;101504.19;104000;1282;61390;-83
2023/04/09 08:04:14;;;;;;;;;;;;;;;22.42;34.25;101501.32;103928;1285;61384;-84
2023/04/09 08:06:40;;;;;;;;;;;;;;;22.43;34.27;101503.60;103946;1288;63113;-83
2023/04/09 08:09:05;;;;;;;;;;;;;;;22.45;34.22;101502.80;103963;1287;61899;-83
2023/04/09 08:11:31;;;;;;;;;;;;;;;22.45;34.29;101498.31;103932;1288;62566;-83
2023/04/09 08:13:56;;;;;;;;;;;;;;;22.45;34.20;101496.30;103993;1283;61640;-83
2023/04/09 08:16:23;;;;;;;;;;;;;;;22.46;34.02;101502.91;103973;1282;61387;-83
2023/04/09 08:18:49;;;;;;;;;;;;;;;22.46;34.14;101502.00;103964;1283;61483;-83
2023/04/09 08:21:15;;;;;;;;;;;;;;;22.46;34.16;101506.61;103965;1282;62418;-83
2023/04/09 08:23:41;;;;;;;;;;;;;;;22.46;34.17;101509.66;104026;1285;61379;-83
2023/04/09 08:26:06;;;;;;;;;;;;;;;22.47;34.17;101508.20;103946;1288;61391;-83
2023/04/09 08:28:31;;;;;;;;;;;;;;;22.47;34.07;101510.70;104007;1289;61381;-83
2023/04/09 08:30:57;;;;;;;;;;;;;;;22.47;34.13;101511.59;103938;1284;75407;-84
2023/04/09 08:33:23;;;;;;;;;;;;;;;22.48;34.15;101509.74;103901;1288;61883;-83
2023/04/09 08:35:48;;;;;;;;;;;;;;;22.48;34.14;101509.73;104009;1288;62145;-83
2023/04/09 08:38:14;;;;;;;;;;;;;;;22.48;34.02;101513.14;104294;1282;61329;-82
2023/04/09 08:40:40;;;;;;;;;;;;;;;22.48;34.09;101517.81;104044;1283;61914;-83
2023/04/09 08:43:05;;;;;;;;;;;;;;;22.49;34.03;101512.75;104039;1286;61381;-83
2023/04/09 08:45:31;;;;;;;;;;;;;;;22.49;34.12;101515.60;103941;1288;61333;-83
2023/04/09 08:48:01;;;;;;;;;;;;;;;22.49;33.95;101513.96;104008;1288;61444;-82
2023/04/09 08:50:27;;;;;;;;;;;;;;;22.50;34.09;101507.83;103949;1288;72491;-82
2023/04/09 08:52:53;;;;;;;;;;;;;;;22.50;34.04;101509.08;103951;1288;61882;-83
2023/04/09 08:55:19;;;;;;;;;;;;;;;22.51;34.00;101505.10;103988;1283;61425;-83
2023/04/09 08:57:44;;;;;;;;;;;;;;;22.51;33.99;101504.90;103989;1282;61408;-84
2023/04/09 09:00:11;;;;;;;;;;;;;;;22.50;34.19;101503.31;104063;1286;61412;-84
2023/04/09 09:02:38;;;;;;;;;;;;;;;22.50;33.96;101503.11;104004;1283;61391;-83
2023/04/09 09:05:06;;;;;;;;;;;;;;;22.51;33.94;101498.25;104035;1283;62647;-84
2023/04/09 09:07:33;;;;;;;;;;;;;;;22.51;33.90;101491.23;103987;1288;61390;-84
2023/04/09 09:10:01;;;;;;;;;;;;;;;22.51;33.99;101489.81;104065;1283;61384;-84
2023/04/09 09:12:39;;;;;;;;;;;;;;;22.51;34.08;101489.27;103949;1283;75372;-84
2023/04/09 09:15:24;;;;;;;;;;;;;;;22.52;33.98;101489.59;104008;1288;61288;-83
2023/04/09 09:17:55;;;;;;;;;;;;;;;22.52;33.92;101482.96;103927;1288;61317;-82
2023/04/09 09:20:21;;;;;;;;;;;;;;;22.53;33.99;101482.33;103975;1288;72363;-82
2023/04/09 09:22:47;;;;;;;;;;;;;;;22.53;33.93;101481.64;104001;1287;75411;-82
2023/04/09 09:25:13;;;;;;;;;;;;;;;22.53;33.92;101480.90;103868;1288;61324;-82
2023/04/09 09:27:39;;;;;;;;;;;;;;;22.53;33.92;101478.41;104026;1286;62539;-85
2023/04/09 09:30:05;;;;;;;;;;;;;;;22.52;33.85;101476.09;103995;1282;61314;-84
2023/04/09 09:32:31;;;;;;;;;;;;;;;22.52;33.91;101477.16;104038;1288;62058;-84
2023/04/09 09:35:01;;;;;;;;;;;;;;;22.52;33.96;101478.27;103879;1283;61327;-83
2023/04/09 09:37:27;;;;;;;;;;;;;;;22.53;33.96;101472.81;104097;1285;62490;-84
2023/04/09 09:39:53;;;;;;;;;;;;;;;22.53;34.04;101473.91;103925;1288;61483;-83
2023/04/09 09:42:19;;;;;;;;;;;;;;;22.53;33.96;101476.06;103974;1283;61454;-83
2023/04/09 09:44:45;;;;;;;;;;;;;;;22.53;33.97;101475.14;104039;1286;61409;-83
2023/04/09 09:47:12;;;;;;;;;;;;;;;22.53;33.95;101472.98;104040;1288;61342;-83
2023/04/09 09:49:37;;;;;;;;;;;;;;;22.54;33.93;101472.56;103895;1287;62195;-84
2023/04/09 09:52:04;;;;;;;;;;;;;;;22.54;34.10;101471.30;104053;1285;61422;-83
2023/04/09 09:54:32;;;;;;;;;;;;;;;22.54;34.00;101464.29;104018;1283;61311;-83
2023/04/09 09:56:58;;;;;;;;;;;;;;;22.53;33.91;101460.42;103917;1288;61292;-84
2023/04/09 09:59:25;;;;;;;;;;;;;;;22.53;33.97;101459.72;103935;1283;61323;-83
2023/04/09 10:01:56;;;;;;;;;;;;;;;22.53;33.95;101460.62;104208;1288;62774;-82
2023/04/09 10:04:21;;;;;;;;;;;;;;;22.52;34.01;101461.20;104118;1288;61348;-82
2023/04/09 10:06:47;;;;;;;;;;;;;;;22.52;34.11;101456.91;104169;1283;61385;-82
2023/04/09 10:09:12;;;;;;;;;;;;;;;22.52;33.96;101459.23;103915;1288;61478;-83
2023/04/09 10:11:37;;;;;;;;;;;;;;;22.52;34.11;101456.89;103924;1283;61473;-83
2023/04/09 10:14:04;;;;;;;;;;;;;;;22.52;34.12;101459.58;103779;1289;61286;-82
2023/04/09 10:16:29;;;;;;;;;;;;;;;22.53;34.07;101457.93;103935;1286;61350;-83
2023/04/09 10:18:55;;;;;;;;;;;;;;;22.54;34.17;101456.45;103960;1283;61435;-84
2023/04/09 10:21:26;;;;;;;;;;;;;;;22.54;34.06;101455.72;104223;1288;61528;-84
2023/04/09 10:23:51;;;;;;;;;;;;;;;22.54;34.13;101456.20;104126;1288;74435;-84
2023/04/09 10:26:17;;;;;;;;;;;;;;;22.55;34.11;101457.44;104078;1282;61388;-84
2023/04/09 10:28:43;;;;;;;;;;;;;;;22.55;34.11;101453.84;104023;1283;61481;-83
2023/04/09 10:31:09;;;;;;;;;;;;;;;22.55;34.15;101449.34;103933;1288;61448;-84
2023/04/09 10:33:37;;;;;;;;;;;;;;;22.55;34.06;101452.94;103984;1283;62666;-83
2023/04/09 10:36:04;;;;;;;;;;;;;;;22.56;34.04;101445.55;103961;1288;61409;-83
2023/04/09 10:38:41;;;;;;;;;;;;;;;22.56;34.09;101442.48;104173;1288;61482;-83
2023/04/09 10:41:21;;;;;;;;;;;;;;;22.56;34.14;101434.92;104277;1288;72672;-83
2023/04/09 10:43:47;;;;;;;;;;;;;;;22.57;34.15;101435.23;104067;1285;75354;-81
2023/04/09 10:46:29;;;;;;;;;;;;;;;22.57;34.07;101426.59;103967;1283;61293;-82
2023/04/09 10:49:14;;;;;;;;;;;;;;;22.57;34.06;101432.15;104065;1285;61318;-82
2023/04/09 10:51:40;;;;;;;;;;;;;;;22.58;34.14;101428.53;104082;1285;73341;-84
2023/04/09 10:54:26;;;;;;;;;;;;;;;22.58;34.17;101420.98;103976;1287;61460;-84
2023/04/09 10:57:12;;;;;;;;;;;;;;;22.58;34.28;101416.52;104027;1285;62672;-84
2023/04/09 10:59:43;;;;;;;;;;;;;;;22.59;34.25;101417.73;104103;1282;61349;-84
2023/04/09 11:02:28;;;;;;;;;;;;;;;22.59;34.28;101415.70;104284;1283;72616;-84
2023/04/09 11:05:12;;;;;;;;;;;;;;;22.59;34.29;101408.69;104048;1285;74243;-82
2023/04/09 11:07:39;;;;;;;;;;;;;;;22.60;34.12;101402.02;104050;1286;61624;-83
2023/04/09 11:10:06;;;;;;;;;;;;;;;22.60;34.29;101407.40;104071;1283;61375;-83
2023/04/09 11:12:32;;;;;;;;;;;;;;;22.61;34.16;101406.45;103982;1288;73463;-83
2023/04/09 11:14:57;;;;;;;;;;;;;;;22.61;34.34;101406.23;104014;1283;62552;-83
2023/04/09 11:17:25;;;;;;;;;;;;;;;22.62;34.24;101399.05;103900;1287;61387;-83
2023/04/09 11:19:50;;;;;;;;;;;;;;;22.62;34.24;101397.58;103890;1283;61323;-83
2023/04/09 11:22:16;;;;;;;;;;;;;;;22.63;34.37;101391.27;104011;1289;61353;-83
2023/04/09 11:24:41;;;;;;;;;;;;;;;22.63;34.27;101391.64;104051;1285;61916;-83
2023/04/09 11:27:07;;;;;;;;;;;;;;;22.63;34.28;101386.75;103946;1283;61660;-83
2023/04/09 11:29:36;;;;;;;;;;;;;;;22.63;34.43;101389.45;104096;1286;62524;-83
2023/04/09 11:32:01;;;;;;;;;;;;;;;22.63;34.35;101385.85;103883;1283;61402;-84
2023/04/09 11:34:27;;;;;;;;;;;;;;;22.64;34.40;101382.59;104108;1295;61377;-83
2023/04/09 11:36:52;;;;;;;;;;;;;;;22.63;34.33;101387.65;103969;1289;61416;-83
2023/04/09 11:39:18;;;;;;;;;;;;;;;22.63;34.37;101383.19;104068;1289;61456;-83
2023/04/09 11:41:43;;;;;;;;;;;;;;;22.64;34.48;101381.52;103923;1288;61723;-84
2023/04/09 11:44:09;;;;;;;;;;;;;;;22.64;34.41;101386.35;104049;1283;62958;-82
2023/04/09 11:46:36;;;;;;;;;;;;;;;22.64;34.35;101380.23;104055;1283;61367;-82
2023/04/09 11:49:01;;;;;;;;;;;;;;;22.65;34.41;101378.05;103858;1283;61332;-84
2023/04/09 11:51:27;;;;;;;;;;;;;;;22.65;34.48;101376.95;103880;1288;61910;-82
2023/04/09 11:53:52;;;;;;;;;;;;;;;22.65;34.45;101379.07;104016;1286;61803;-82
2023/04/09 11:56:19;;;;;;;;;;;;;;;22.66;34.34;101379.93;103910;1283;61355;-83
2023/04/09 11:58:48;;;;;;;;;;;;;;;22.66;34.30;101376.31;103927;1288;61323;-83
2023/04/09 12:01:14;;;;;;;;;;;;;;;22.67;34.31;101375.40;103996;1287;62424;-84
2023/04/09 12:03:40;;;;;;;;;;;;;;;22.67;34.24;101375.39;103962;1288;62379;-83
2023/04/09 12:06:05;;;;;;;;;;;;;;;22.67;34.40;101373.02;103939;1288;61333;-83
2023/04/09 12:08:33;;;;;;;;;;;;;;;22.68;34.30;101372.98;104040;1286;61485;-83
2023/04/09 12:11:12;;;;;;;;;;;;;;;22.68;34.40;101371.00;103945;1289;61323;-84
2023/04/09 12:13:43;;;;;;;;;;;;;;;22.68;34.34;101367.73;103948;1288;61189;-84
2023/04/09 12:16:09;;;;;;;;;;;;;;;22.69;34.30;101367.33;104071;1286;73900;-84
2023/04/09 12:18:35;;;;;;;;;;;;;;;22.69;34.46;101361.91;103966;1288;61297;-83
2023/04/09 12:21:01;;;;;;;;;;;;;;;22.69;34.41;101359.77;103998;1283;62619;-83
2023/04/09 12:23:27;;;;;;;;;;;;;;;22.70;34.30;101357.73;103992;1289;61272;-83
2023/04/09 12:25:54;;;;;;;;;;;;;;;22.71;34.46;101357.35;103923;1289;62525;-83